sensor_id;sensor_type;location;lat;lon;timestamp;temperature;humidity
41816;DHT22;27814;53.452;-6.180;2022-12-08T00:00:17;5.50;99.90
41816;DHT22;27814;53.452;-6.180;2022-12-08T00:02:45;5.50;99.90
41816;DHT22;27814;53.452;-6.180;2022-12-08T00:05:14;5.40;99.90
41816;DHT22;27814;53.452;-6.180;2022-12-08T00:08:01;5.40;99.90
41816;DHT22;27814;53.452;-6.180;2022-12-08T00:11:01;5.50;99.90
41816;DHT22;27814;53.452;-6.180;2022-12-08T00:13:31;5.50;99.90
41816;DHT22;27814;53.452;-6.180;2022-12-08T00:16:00;5.40;99.90
41816;DHT22;27814;53.452;-6.180;2022-12-08T00:18:28;5.40;99.90
41816;DHT22;27814;53.452;-6.180;2022-12-08T00:20:58;5.40;99.90
41816;DHT22;27814;53.452;-6.180;2022-12-08T00:23:26;5.40;99.90
41816;DHT22;27814;53.452;-6.180;2022-12-08T00:25:55;5.30;99.90
41816;DHT22;27814;53.452;-6.180;2022-12-08T00:28:24;5.30;99.90
41816;DHT22;27814;53.452;-6.180;2022-12-08T00:30:53;5.30;99.90
41816;DHT22;27814;53.452;-6.180;2022-12-08T00:33:22;5.20;99.90
41816;DHT22;27814;53.452;-6.180;2022-12-08T00:35:51;5.20;99.90
41816;DHT22;27814;53.452;-6.180;2022-12-08T00:38:19;5.20;99.90
41816;DHT22;27814;53.452;-6.180;2022-12-08T00:40:48;5.10;99.90
41816;DHT22;27814;53.452;-6.180;2022-12-08T00:43:16;5.10;99.90
41816;DHT22;27814;53.452;-6.180;2022-12-08T00:45:48;5.10;99.90
41816;DHT22;27814;53.452;-6.180;2022-12-08T00:48:17;5.00;99.90
41816;DHT22;27814;53.452;-6.180;2022-12-08T00:50:46;5.00;99.90
41816;DHT22;27814;53.452;-6.180;2022-12-08T00:53:15;5.00;99.90
41816;DHT22;27814;53.452;-6.180;2022-12-08T00:55:43;4.90;99.90
41816;DHT22;27814;53.452;-6.180;2022-12-08T00:58:14;4.90;99.90
41816;DHT22;27814;53.452;-6.180;2022-12-08T01:00:43;4.90;99.90
41816;DHT22;27814;53.452;-6.180;2022-12-08T01:03:12;4.80;99.90
41816;DHT22;27814;53.452;-6.180;2022-12-08T01:05:42;4.80;99.90
41816;DHT22;27814;53.452;-6.180;2022-12-08T01:08:11;4.80;99.90
41816;DHT22;27814;53.452;-6.180;2022-12-08T01:10:39;4.80;99.90
41816;DHT22;27814;53.452;-6.180;2022-12-08T01:13:08;4.80;99.90
41816;DHT22;27814;53.452;-6.180;2022-12-08T01:15:37;4.80;99.90
41816;DHT22;27814;53.452;-6.180;2022-12-08T01:18:05;4.80;99.90
41816;DHT22;27814;53.452;-6.180;2022-12-08T01:20:34;4.80;99.90
41816;DHT22;27814;53.452;-6.180;2022-12-08T01:23:04;4.70;99.90
41816;DHT22;27814;53.452;-6.180;2022-12-08T01:25:33;4.70;99.90
41816;DHT22;27814;53.452;-6.180;2022-12-08T01:28:01;4.70;99.90
41816;DHT22;27814;53.452;-6.180;2022-12-08T01:30:33;4.70;99.90
41816;DHT22;27814;53.452;-6.180;2022-12-08T01:33:01;4.70;99.90
41816;DHT22;27814;53.452;-6.180;2022-12-08T01:35:30;4.60;99.90
41816;DHT22;27814;53.452;-6.180;2022-12-08T01:38:01;4.60;99.90
41816;DHT22;27814;53.452;-6.180;2022-12-08T01:40:33;4.60;99.90
41816;DHT22;27814;53.452;-6.180;2022-12-08T01:43:01;4.60;99.90
41816;DHT22;27814;53.452;-6.180;2022-12-08T01:45:31;4.60;99.90
41816;DHT22;27814;53.452;-6.180;2022-12-08T01:48:03;4.60;99.90
41816;DHT22;27814;53.452;-6.180;2022-12-08T01:50:33;4.50;99.90
41816;DHT22;27814;53.452;-6.180;2022-12-08T01:53:07;4.50;99.90
41816;DHT22;27814;53.452;-6.180;2022-12-08T01:55:41;4.50;99.90
41816;DHT22;27814;53.452;-6.180;2022-12-08T01:58:14;4.50;99.90
41816;DHT22;27814;53.452;-6.180;2022-12-08T02:00:44;4.50;99.90
41816;DHT22;27814;53.452;-6.180;2022-12-08T02:03:17;4.40;99.90
41816;DHT22;27814;53.452;-6.180;2022-12-08T02:05:47;4.40;99.90
41816;DHT22;27814;53.452;-6.180;2022-12-08T02:08:17;4.50;99.90
41816;DHT22;27814;53.452;-6.180;2022-12-08T02:10:50;4.40;99.90
41816;DHT22;27814;53.452;-6.180;2022-12-08T02:13:20;4.50;99.90
41816;DHT22;27814;53.452;-6.180;2022-12-08T02:15:57;4.50;99.90
41816;DHT22;27814;53.452;-6.180;2022-12-08T02:18:38;4.40;99.90
41816;DHT22;27814;53.452;-6.180;2022-12-08T02:21:13;4.50;99.90
41816;DHT22;27814;53.452;-6.180;2022-12-08T02:23:50;4.40;99.90
41816;DHT22;27814;53.452;-6.180;2022-12-08T02:35:48;4.40;99.90
41816;DHT22;27814;53.452;-6.180;2022-12-08T02:38:27;4.40;99.90
41816;DHT22;27814;53.452;-6.180;2022-12-08T02:41:02;4.40;99.90
41816;DHT22;27814;53.452;-6.180;2022-12-08T02:43:37;4.40;99.90
41816;DHT22;27814;53.452;-6.180;2022-12-08T02:46:11;4.30;99.90
41816;DHT22;27814;53.452;-6.180;2022-12-08T02:48:41;4.30;99.90
41816;DHT22;27814;53.452;-6.180;2022-12-08T02:51:11;4.30;99.90
41816;DHT22;27814;53.452;-6.180;2022-12-08T02:53:40;4.30;99.90
41816;DHT22;27814;53.452;-6.180;2022-12-08T02:56:16;4.30;99.90
41816;DHT22;27814;53.452;-6.180;2022-12-08T02:59:16;4.30;99.90
41816;DHT22;27814;53.452;-6.180;2022-12-08T03:02:00;4.30;99.90
41816;DHT22;27814;53.452;-6.180;2022-12-08T03:04:40;4.30;99.90
41816;DHT22;27814;53.452;-6.180;2022-12-08T03:07:16;4.30;99.90
41816;DHT22;27814;53.452;-6.180;2022-12-08T03:09:52;4.30;99.90
41816;DHT22;27814;53.452;-6.180;2022-12-08T03:12:25;4.30;99.90
41816;DHT22;27814;53.452;-6.180;2022-12-08T03:14:58;4.30;99.90
41816;DHT22;27814;53.452;-6.180;2022-12-08T03:17:31;4.30;99.90
41816;DHT22;27814;53.452;-6.180;2022-12-08T03:20:03;4.30;99.90
41816;DHT22;27814;53.452;-6.180;2022-12-08T03:22:36;4.20;99.90
41816;DHT22;27814;53.452;-6.180;2022-12-08T03:25:08;4.30;99.90
41816;DHT22;27814;53.452;-6.180;2022-12-08T03:27:37;4.20;99.90
41816;DHT22;27814;53.452;-6.180;2022-12-08T03:30:07;4.30;99.90
41816;DHT22;27814;53.452;-6.180;2022-12-08T03:32:42;4.30;99.90
41816;DHT22;27814;53.452;-6.180;2022-12-08T03:35:15;4.30;99.90
41816;DHT22;27814;53.452;-6.180;2022-12-08T03:38:01;4.30;99.90
41816;DHT22;27814;53.452;-6.180;2022-12-08T03:40:30;4.30;99.90
41816;DHT22;27814;53.452;-6.180;2022-12-08T03:42:58;4.30;99.90
41816;DHT22;27814;53.452;-6.180;2022-12-08T03:45:27;4.30;99.90
41816;DHT22;27814;53.452;-6.180;2022-12-08T03:47:56;4.40;99.90
41816;DHT22;27814;53.452;-6.180;2022-12-08T03:50:24;4.40;99.90
41816;DHT22;27814;53.452;-6.180;2022-12-08T03:52:57;4.40;99.90
41816;DHT22;27814;53.452;-6.180;2022-12-08T03:55:25;4.50;99.90
41816;DHT22;27814;53.452;-6.180;2022-12-08T03:57:54;4.50;99.90
41816;DHT22;27814;53.452;-6.180;2022-12-08T04:00:22;4.50;99.90
41816;DHT22;27814;53.452;-6.180;2022-12-08T04:02:51;4.50;99.90
41816;DHT22;27814;53.452;-6.180;2022-12-08T04:05:20;4.60;99.90
41816;DHT22;27814;53.452;-6.180;2022-12-08T04:07:48;4.50;99.90
41816;DHT22;27814;53.452;-6.180;2022-12-08T04:10:18;4.60;99.90
41816;DHT22;27814;53.452;-6.180;2022-12-08T04:12:46;4.60;99.90
41816;DHT22;27814;53.452;-6.180;2022-12-08T04:15:15;4.60;99.90
41816;DHT22;27814;53.452;-6.180;2022-12-08T04:17:44;4.60;99.90
41816;DHT22;27814;53.452;-6.180;2022-12-08T04:20:12;4.60;99.90
41816;DHT22;27814;53.452;-6.180;2022-12-08T04:22:41;4.60;99.90
41816;DHT22;27814;53.452;-6.180;2022-12-08T04:25:10;4.60;99.90
41816;DHT22;27814;53.452;-6.180;2022-12-08T04:27:40;4.60;99.90
41816;DHT22;27814;53.452;-6.180;2022-12-08T04:30:09;4.60;99.90
41816;DHT22;27814;53.452;-6.180;2022-12-08T04:32:37;4.60;99.90
41816;DHT22;27814;53.452;-6.180;2022-12-08T04:35:13;4.60;99.90
41816;DHT22;27814;53.452;-6.180;2022-12-08T04:37:41;4.60;99.90
41816;DHT22;27814;53.452;-6.180;2022-12-08T04:40:11;4.60;99.90
41816;DHT22;27814;53.452;-6.180;2022-12-08T04:42:42;4.60;99.90
41816;DHT22;27814;53.452;-6.180;2022-12-08T04:45:10;4.50;99.90
41816;DHT22;27814;53.452;-6.180;2022-12-08T04:47:39;4.50;99.90
41816;DHT22;27814;53.452;-6.180;2022-12-08T04:50:08;4.50;99.90
41816;DHT22;27814;53.452;-6.180;2022-12-08T04:52:37;4.50;99.90
41816;DHT22;27814;53.452;-6.180;2022-12-08T04:55:06;4.40;99.90
41816;DHT22;27814;53.452;-6.180;2022-12-08T04:57:35;4.40;99.90
41816;DHT22;27814;53.452;-6.180;2022-12-08T05:00:08;4.40;99.90
41816;DHT22;27814;53.452;-6.180;2022-12-08T05:02:36;4.40;99.90
41816;DHT22;27814;53.452;-6.180;2022-12-08T05:05:07;4.30;99.90
41816;DHT22;27814;53.452;-6.180;2022-12-08T05:07:35;4.30;99.90
41816;DHT22;27814;53.452;-6.180;2022-12-08T05:10:06;4.30;99.90
41816;DHT22;27814;53.452;-6.180;2022-12-08T05:12:36;4.30;99.90
41816;DHT22;27814;53.452;-6.180;2022-12-08T05:15:08;4.40;99.90
41816;DHT22;27814;53.452;-6.180;2022-12-08T05:17:37;4.30;99.90
41816;DHT22;27814;53.452;-6.180;2022-12-08T05:20:07;4.40;99.90
41816;DHT22;27814;53.452;-6.180;2022-12-08T05:22:35;4.40;99.90
41816;DHT22;27814;53.452;-6.180;2022-12-08T05:25:05;4.40;99.90
41816;DHT22;27814;53.452;-6.180;2022-12-08T05:27:34;4.40;99.90
41816;DHT22;27814;53.452;-6.180;2022-12-08T05:30:06;4.40;99.90
41816;DHT22;27814;53.452;-6.180;2022-12-08T05:32:34;4.40;99.90
41816;DHT22;27814;53.452;-6.180;2022-12-08T05:35:03;4.40;99.90
41816;DHT22;27814;53.452;-6.180;2022-12-08T05:37:32;4.50;99.90
41816;DHT22;27814;53.452;-6.180;2022-12-08T05:40:00;4.50;99.90
41816;DHT22;27814;53.452;-6.180;2022-12-08T05:42:30;4.50;99.90
41816;DHT22;27814;53.452;-6.180;2022-12-08T05:44:58;4.50;99.90
41816;DHT22;27814;53.452;-6.180;2022-12-08T05:47:29;4.60;99.90
41816;DHT22;27814;53.452;-6.180;2022-12-08T05:50:02;4.60;99.90
41816;DHT22;27814;53.452;-6.180;2022-12-08T05:52:31;4.70;99.90
41816;DHT22;27814;53.452;-6.180;2022-12-08T05:55:00;4.70;99.90
41816;DHT22;27814;53.452;-6.180;2022-12-08T05:57:28;4.70;99.90
41816;DHT22;27814;53.452;-6.180;2022-12-08T05:59:57;4.70;99.90
41816;DHT22;27814;53.452;-6.180;2022-12-08T06:02:30;4.70;99.90
41816;DHT22;27814;53.452;-6.180;2022-12-08T06:04:59;4.70;99.90
41816;DHT22;27814;53.452;-6.180;2022-12-08T06:07:28;4.70;99.90
41816;DHT22;27814;53.452;-6.180;2022-12-08T06:09:56;4.70;99.90
41816;DHT22;27814;53.452;-6.180;2022-12-08T06:12:24;4.70;99.90
41816;DHT22;27814;53.452;-6.180;2022-12-08T06:14:53;4.70;99.90
41816;DHT22;27814;53.452;-6.180;2022-12-08T06:17:22;4.70;99.90
41816;DHT22;27814;53.452;-6.180;2022-12-08T06:19:52;4.70;99.90
41816;DHT22;27814;53.452;-6.180;2022-12-08T06:22:21;4.70;99.90
41816;DHT22;27814;53.452;-6.180;2022-12-08T06:24:49;4.70;99.90
41816;DHT22;27814;53.452;-6.180;2022-12-08T06:27:17;4.70;99.90
41816;DHT22;27814;53.452;-6.180;2022-12-08T06:29:47;4.70;99.90
41816;DHT22;27814;53.452;-6.180;2022-12-08T06:32:16;4.70;99.90
41816;DHT22;27814;53.452;-6.180;2022-12-08T06:34:54;4.70;99.90
41816;DHT22;27814;53.452;-6.180;2022-12-08T06:37:23;4.70;99.90
41816;DHT22;27814;53.452;-6.180;2022-12-08T06:39:52;4.70;99.90
41816;DHT22;27814;53.452;-6.180;2022-12-08T06:42:21;4.70;99.90
41816;DHT22;27814;53.452;-6.180;2022-12-08T06:45:08;4.70;99.90
41816;DHT22;27814;53.452;-6.180;2022-12-08T06:47:36;4.70;99.90
41816;DHT22;27814;53.452;-6.180;2022-12-08T06:50:08;4.70;99.90
41816;DHT22;27814;53.452;-6.180;2022-12-08T06:52:38;4.70;99.90
41816;DHT22;27814;53.452;-6.180;2022-12-08T06:55:21;4.60;99.90
41816;DHT22;27814;53.452;-6.180;2022-12-08T06:58:10;4.60;99.90
41816;DHT22;27814;53.452;-6.180;2022-12-08T07:00:39;4.60;99.90
41816;DHT22;27814;53.452;-6.180;2022-12-08T07:03:10;4.50;99.90
41816;DHT22;27814;53.452;-6.180;2022-12-08T07:05:42;4.50;99.90
41816;DHT22;27814;53.452;-6.180;2022-12-08T07:08:10;4.40;99.90
41816;DHT22;27814;53.452;-6.180;2022-12-08T07:10:39;4.40;99.90
41816;DHT22;27814;53.452;-6.180;2022-12-08T07:13:08;4.40;99.90
41816;DHT22;27814;53.452;-6.180;2022-12-08T07:15:36;4.40;99.90
41816;DHT22;27814;53.452;-6.180;2022-12-08T07:18:05;4.40;99.90
41816;DHT22;27814;53.452;-6.180;2022-12-08T07:20:34;4.40;99.90
41816;DHT22;27814;53.452;-6.180;2022-12-08T07:23:04;4.30;99.90
41816;DHT22;27814;53.452;-6.180;2022-12-08T07:25:32;4.30;99.90
41816;DHT22;27814;53.452;-6.180;2022-12-08T07:28:06;4.30;99.90
41816;DHT22;27814;53.452;-6.180;2022-12-08T07:30:34;4.30;99.90
41816;DHT22;27814;53.452;-6.180;2022-12-08T07:33:03;4.30;99.90
41816;DHT22;27814;53.452;-6.180;2022-12-08T07:35:35;4.30;99.90
41816;DHT22;27814;53.452;-6.180;2022-12-08T07:38:09;4.30;99.90
41816;DHT22;27814;53.452;-6.180;2022-12-08T07:40:38;4.30;99.90
41816;DHT22;27814;53.452;-6.180;2022-12-08T07:43:07;4.30;99.90
41816;DHT22;27814;53.452;-6.180;2022-12-08T07:45:35;4.20;99.90
41816;DHT22;27814;53.452;-6.180;2022-12-08T07:48:06;4.20;99.90
41816;DHT22;27814;53.452;-6.180;2022-12-08T07:50:34;4.20;99.90
41816;DHT22;27814;53.452;-6.180;2022-12-08T07:53:05;4.20;99.90
41816;DHT22;27814;53.452;-6.180;2022-12-08T07:55:33;4.10;99.90
41816;DHT22;27814;53.452;-6.180;2022-12-08T07:58:05;4.10;99.90
41816;DHT22;27814;53.452;-6.180;2022-12-08T08:00:34;4.10;99.90
41816;DHT22;27814;53.452;-6.180;2022-12-08T08:03:04;4.10;99.90
41816;DHT22;27814;53.452;-6.180;2022-12-08T08:05:35;4.00;99.90
41816;DHT22;27814;53.452;-6.180;2022-12-08T08:08:05;4.00;99.90
41816;DHT22;27814;53.452;-6.180;2022-12-08T08:10:34;4.00;99.90
41816;DHT22;27814;53.452;-6.180;2022-12-08T08:13:03;4.00;99.90
41816;DHT22;27814;53.452;-6.180;2022-12-08T08:15:32;4.00;99.90
41816;DHT22;27814;53.452;-6.180;2022-12-08T08:18:02;4.00;99.90
41816;DHT22;27814;53.452;-6.180;2022-12-08T08:20:31;4.00;99.90
41816;DHT22;27814;53.452;-6.180;2022-12-08T08:23:01;4.00;99.90
41816;DHT22;27814;53.452;-6.180;2022-12-08T08:25:31;4.00;99.90
41816;DHT22;27814;53.452;-6.180;2022-12-08T08:28:02;4.00;99.90
41816;DHT22;27814;53.452;-6.180;2022-12-08T08:30:30;4.00;99.90
41816;DHT22;27814;53.452;-6.180;2022-12-08T08:32:59;4.00;99.90
41816;DHT22;27814;53.452;-6.180;2022-12-08T08:35:28;4.00;99.90
41816;DHT22;27814;53.452;-6.180;2022-12-08T08:37:57;3.90;99.90
41816;DHT22;27814;53.452;-6.180;2022-12-08T08:40:26;3.90;99.90
41816;DHT22;27814;53.452;-6.180;2022-12-08T08:42:56;3.90;99.90
41816;DHT22;27814;53.452;-6.180;2022-12-08T08:45:24;3.90;99.90
41816;DHT22;27814;53.452;-6.180;2022-12-08T08:47:54;3.80;99.90
41816;DHT22;27814;53.452;-6.180;2022-12-08T08:50:23;3.90;99.90
41816;DHT22;27814;53.452;-6.180;2022-12-08T08:52:52;3.80;99.90
41816;DHT22;27814;53.452;-6.180;2022-12-08T08:55:22;3.80;99.90
41816;DHT22;27814;53.452;-6.180;2022-12-08T08:57:50;3.80;99.90
41816;DHT22;27814;53.452;-6.180;2022-12-08T09:00:21;3.80;99.90
41816;DHT22;27814;53.452;-6.180;2022-12-08T09:02:49;3.80;99.90
41816;DHT22;27814;53.452;-6.180;2022-12-08T09:05:19;3.80;99.90
41816;DHT22;27814;53.452;-6.180;2022-12-08T09:07:47;3.90;99.90
41816;DHT22;27814;53.452;-6.180;2022-12-08T09:10:16;3.90;99.90
41816;DHT22;27814;53.452;-6.180;2022-12-08T09:12:44;3.90;99.90
41816;DHT22;27814;53.452;-6.180;2022-12-08T09:15:16;3.90;99.90
41816;DHT22;27814;53.452;-6.180;2022-12-08T09:17:48;4.00;99.90
41816;DHT22;27814;53.452;-6.180;2022-12-08T09:20:17;4.00;99.90
41816;DHT22;27814;53.452;-6.180;2022-12-08T09:22:45;4.10;99.90
41816;DHT22;27814;53.452;-6.180;2022-12-08T09:25:19;4.10;99.90
41816;DHT22;27814;53.452;-6.180;2022-12-08T09:27:49;4.10;99.90
41816;DHT22;27814;53.452;-6.180;2022-12-08T09:30:18;4.20;99.90
41816;DHT22;27814;53.452;-6.180;2022-12-08T09:32:47;4.20;99.90
41816;DHT22;27814;53.452;-6.180;2022-12-08T09:35:17;4.30;99.90
41816;DHT22;27814;53.452;-6.180;2022-12-08T09:37:46;4.30;99.90
41816;DHT22;27814;53.452;-6.180;2022-12-08T09:40:17;4.40;99.90
41816;DHT22;27814;53.452;-6.180;2022-12-08T09:42:50;4.40;99.90
41816;DHT22;27814;53.452;-6.180;2022-12-08T09:45:20;4.50;99.90
41816;DHT22;27814;53.452;-6.180;2022-12-08T09:47:57;4.50;99.90
41816;DHT22;27814;53.452;-6.180;2022-12-08T09:50:30;4.60;99.90
41816;DHT22;27814;53.452;-6.180;2022-12-08T09:53:05;4.60;99.90
41816;DHT22;27814;53.452;-6.180;2022-12-08T09:55:40;4.70;99.90
41816;DHT22;27814;53.452;-6.180;2022-12-08T09:58:18;4.70;99.90
41816;DHT22;27814;53.452;-6.180;2022-12-08T10:00:48;4.70;99.90
41816;DHT22;27814;53.452;-6.180;2022-12-08T10:03:18;4.80;99.90
41816;DHT22;27814;53.452;-6.180;2022-12-08T10:05:53;4.90;99.90
41816;DHT22;27814;53.452;-6.180;2022-12-08T10:08:27;4.90;99.90
41816;DHT22;27814;53.452;-6.180;2022-12-08T10:10:59;5.00;99.90
41816;DHT22;27814;53.452;-6.180;2022-12-08T10:13:34;5.10;99.90
41816;DHT22;27814;53.452;-6.180;2022-12-08T10:16:14;5.20;99.90
41816;DHT22;27814;53.452;-6.180;2022-12-08T10:19:00;5.20;99.90
41816;DHT22;27814;53.452;-6.180;2022-12-08T10:21:33;5.30;99.90
41816;DHT22;27814;53.452;-6.180;2022-12-08T10:24:08;5.20;99.90
41816;DHT22;27814;53.452;-6.180;2022-12-08T10:26:40;5.20;99.90
41816;DHT22;27814;53.452;-6.180;2022-12-08T10:29:10;5.20;99.90
41816;DHT22;27814;53.452;-6.180;2022-12-08T10:31:39;5.20;99.90
41816;DHT22;27814;53.452;-6.180;2022-12-08T10:34:20;5.30;99.90
41816;DHT22;27814;53.452;-6.180;2022-12-08T10:36:51;5.30;99.90
41816;DHT22;27814;53.452;-6.180;2022-12-08T10:39:33;5.20;99.90
41816;DHT22;27814;53.452;-6.180;2022-12-08T10:42:16;5.20;99.90
41816;DHT22;27814;53.452;-6.180;2022-12-08T10:44:54;5.20;99.90
41816;DHT22;27814;53.452;-6.180;2022-12-08T10:47:26;5.20;99.90
41816;DHT22;27814;53.452;-6.180;2022-12-08T10:50:14;5.20;99.90
41816;DHT22;27814;53.452;-6.180;2022-12-08T10:52:45;5.10;99.90
41816;DHT22;27814;53.452;-6.180;2022-12-08T10:55:15;5.10;99.90
41816;DHT22;27814;53.452;-6.180;2022-12-08T10:57:44;5.10;99.90
41816;DHT22;27814;53.452;-6.180;2022-12-08T11:00:17;5.10;99.90
41816;DHT22;27814;53.452;-6.180;2022-12-08T11:02:59;5.10;99.90
41816;DHT22;27814;53.452;-6.180;2022-12-08T11:05:32;5.10;99.90
41816;DHT22;27814;53.452;-6.180;2022-12-08T11:08:02;5.20;99.90
41816;DHT22;27814;53.452;-6.180;2022-12-08T11:10:35;5.10;99.90
41816;DHT22;27814;53.452;-6.180;2022-12-08T11:13:10;5.20;99.90
41816;DHT22;27814;53.452;-6.180;2022-12-08T11:15:43;5.20;99.90
41816;DHT22;27814;53.452;-6.180;2022-12-08T11:18:24;5.20;99.90
41816;DHT22;27814;53.452;-6.180;2022-12-08T11:21:05;5.30;99.90
41816;DHT22;27814;53.452;-6.180;2022-12-08T11:23:35;5.30;99.90
41816;DHT22;27814;53.452;-6.180;2022-12-08T11:26:10;5.40;99.90
41816;DHT22;27814;53.452;-6.180;2022-12-08T11:28:42;5.40;99.90
41816;DHT22;27814;53.452;-6.180;2022-12-08T11:31:20;5.40;99.90
41816;DHT22;27814;53.452;-6.180;2022-12-08T11:33:52;5.40;99.90
41816;DHT22;27814;53.452;-6.180;2022-12-08T11:36:24;5.50;99.90
41816;DHT22;27814;53.452;-6.180;2022-12-08T11:38:57;5.50;99.90
41816;DHT22;27814;53.452;-6.180;2022-12-08T11:41:29;5.60;99.90
41816;DHT22;27814;53.452;-6.180;2022-12-08T11:44:04;5.60;99.90
41816;DHT22;27814;53.452;-6.180;2022-12-08T11:46:36;5.70;99.90
41816;DHT22;27814;53.452;-6.180;2022-12-08T11:49:09;5.60;99.90
41816;DHT22;27814;53.452;-6.180;2022-12-08T11:51:45;5.70;99.90
41816;DHT22;27814;53.452;-6.180;2022-12-08T11:54:19;5.70;99.90
41816;DHT22;27814;53.452;-6.180;2022-12-08T11:56:52;5.70;99.90
41816;DHT22;27814;53.452;-6.180;2022-12-08T11:59:25;5.60;99.90
41816;DHT22;27814;53.452;-6.180;2022-12-08T12:01:57;5.60;99.90
41816;DHT22;27814;53.452;-6.180;2022-12-08T12:04:31;5.60;99.90
41816;DHT22;27814;53.452;-6.180;2022-12-08T12:07:38;5.60;99.90
41816;DHT22;27814;53.452;-6.180;2022-12-08T12:10:34;5.50;99.90
41816;DHT22;27814;53.452;-6.180;2022-12-08T12:13:18;5.50;99.90
41816;DHT22;27814;53.452;-6.180;2022-12-08T12:18:59;5.50;99.90
41816;DHT22;27814;53.452;-6.180;2022-12-08T12:21:33;5.50;99.90
41816;DHT22;27814;53.452;-6.180;2022-12-08T12:24:13;5.40;99.90
41816;DHT22;27814;53.452;-6.180;2022-12-08T12:26:59;5.50;99.90
41816;DHT22;27814;53.452;-6.180;2022-12-08T12:29:31;5.40;99.90
41816;DHT22;27814;53.452;-6.180;2022-12-08T12:32:04;5.50;99.90
41816;DHT22;27814;53.452;-6.180;2022-12-08T12:34:36;5.50;99.90
41816;DHT22;27814;53.452;-6.180;2022-12-08T12:37:08;5.50;99.90
41816;DHT22;27814;53.452;-6.180;2022-12-08T12:39:48;5.50;99.90
41816;DHT22;27814;53.452;-6.180;2022-12-08T12:42:40;5.60;99.90
41816;DHT22;27814;53.452;-6.180;2022-12-08T12:45:25;5.60;99.90
41816;DHT22;27814;53.452;-6.180;2022-12-08T12:48:18;5.60;99.90
41816;DHT22;27814;53.452;-6.180;2022-12-08T12:50:49;5.60;99.90
41816;DHT22;27814;53.452;-6.180;2022-12-08T12:53:45;5.70;99.90
41816;DHT22;27814;53.452;-6.180;2022-12-08T13:02:26;5.80;99.90
41816;DHT22;27814;53.452;-6.180;2022-12-08T13:05:00;5.90;99.90
41816;DHT22;27814;53.452;-6.180;2022-12-08T13:07:31;5.90;99.90
41816;DHT22;27814;53.452;-6.180;2022-12-08T13:10:10;5.90;99.90
41816;DHT22;27814;53.452;-6.180;2022-12-08T13:12:42;6.00;99.90
41816;DHT22;27814;53.452;-6.180;2022-12-08T13:15:18;6.00;99.90
41816;DHT22;27814;53.452;-6.180;2022-12-08T13:17:49;6.10;99.90
41816;DHT22;27814;53.452;-6.180;2022-12-08T13:20:23;6.10;99.90
41816;DHT22;27814;53.452;-6.180;2022-12-08T13:23:23;6.20;99.90
41816;DHT22;27814;53.452;-6.180;2022-12-08T13:26:17;6.20;99.90
41816;DHT22;27814;53.452;-6.180;2022-12-08T13:29:18;6.20;99.90
41816;DHT22;27814;53.452;-6.180;2022-12-08T13:31:49;6.20;99.90
41816;DHT22;27814;53.452;-6.180;2022-12-08T13:34:27;6.20;99.90
41816;DHT22;27814;53.452;-6.180;2022-12-08T13:37:05;6.20;99.90
41816;DHT22;27814;53.452;-6.180;2022-12-08T13:39:41;6.20;99.90
41816;DHT22;27814;53.452;-6.180;2022-12-08T13:42:18;6.20;99.90
41816;DHT22;27814;53.452;-6.180;2022-12-08T13:44:50;6.20;99.90
41816;DHT22;27814;53.452;-6.180;2022-12-08T13:47:44;6.20;99.90
41816;DHT22;27814;53.452;-6.180;2022-12-08T13:50:44;6.20;99.90
41816;DHT22;27814;53.452;-6.180;2022-12-08T13:53:37;6.20;99.90
41816;DHT22;27814;53.452;-6.180;2022-12-08T13:56:27;6.10;99.90
41816;DHT22;27814;53.452;-6.180;2022-12-08T13:59:26;6.20;99.90
41816;DHT22;27814;53.452;-6.180;2022-12-08T14:01:58;6.20;99.90
41816;DHT22;27814;53.452;-6.180;2022-12-08T14:04:28;6.20;99.90
41816;DHT22;27814;53.452;-6.180;2022-12-08T14:07:18;6.20;99.90
41816;DHT22;27814;53.452;-6.180;2022-12-08T14:09:47;6.20;99.90
41816;DHT22;27814;53.452;-6.180;2022-12-08T14:12:17;6.20;99.90
41816;DHT22;27814;53.452;-6.180;2022-12-08T14:14:48;6.20;99.90
41816;DHT22;27814;53.452;-6.180;2022-12-08T14:17:29;6.10;99.90
41816;DHT22;27814;53.452;-6.180;2022-12-08T14:19:59;6.10;99.90
41816;DHT22;27814;53.452;-6.180;2022-12-08T14:22:33;6.10;99.90
41816;DHT22;27814;53.452;-6.180;2022-12-08T14:25:03;6.10;99.90
41816;DHT22;27814;53.452;-6.180;2022-12-08T14:27:33;6.10;99.90
41816;DHT22;27814;53.452;-6.180;2022-12-08T14:30:05;6.10;99.90
41816;DHT22;27814;53.452;-6.180;2022-12-08T14:32:39;6.10;99.90
41816;DHT22;27814;53.452;-6.180;2022-12-08T14:35:19;6.10;99.90
41816;DHT22;27814;53.452;-6.180;2022-12-08T14:37:53;6.10;99.90
41816;DHT22;27814;53.452;-6.180;2022-12-08T14:40:29;6.00;99.90
41816;DHT22;27814;53.452;-6.180;2022-12-08T14:43:12;6.00;99.90
41816;DHT22;27814;53.452;-6.180;2022-12-08T14:45:49;6.10;99.90
41816;DHT22;27814;53.452;-6.180;2022-12-08T14:48:24;6.10;99.90
41816;DHT22;27814;53.452;-6.180;2022-12-08T14:50:57;6.10;99.90
41816;DHT22;27814;53.452;-6.180;2022-12-08T14:53:36;6.10;99.90
41816;DHT22;27814;53.452;-6.180;2022-12-08T14:56:12;6.10;99.90
41816;DHT22;27814;53.452;-6.180;2022-12-08T14:58:42;6.10;99.90
41816;DHT22;27814;53.452;-6.180;2022-12-08T15:01:12;6.10;99.90
41816;DHT22;27814;53.452;-6.180;2022-12-08T15:03:44;6.10;99.90
41816;DHT22;27814;53.452;-6.180;2022-12-08T15:06:19;6.10;99.90
41816;DHT22;27814;53.452;-6.180;2022-12-08T15:08:56;6.00;99.90
41816;DHT22;27814;53.452;-6.180;2022-12-08T15:11:30;6.10;99.90
41816;DHT22;27814;53.452;-6.180;2022-12-08T15:13:59;6.00;99.90
41816;DHT22;27814;53.452;-6.180;2022-12-08T15:16:30;5.90;99.90
41816;DHT22;27814;53.452;-6.180;2022-12-08T15:19:16;5.90;99.90
41816;DHT22;27814;53.452;-6.180;2022-12-08T15:21:47;5.90;99.90
41816;DHT22;27814;53.452;-6.180;2022-12-08T15:24:17;5.80;99.90
41816;DHT22;27814;53.452;-6.180;2022-12-08T15:26:48;5.70;99.90
41816;DHT22;27814;53.452;-6.180;2022-12-08T15:29:20;5.70;99.90
41816;DHT22;27814;53.452;-6.180;2022-12-08T15:31:50;5.60;99.90
41816;DHT22;27814;53.452;-6.180;2022-12-08T15:34:20;5.60;99.90
41816;DHT22;27814;53.452;-6.180;2022-12-08T15:36:50;5.60;99.90
41816;DHT22;27814;53.452;-6.180;2022-12-08T15:39:29;5.50;99.90
41816;DHT22;27814;53.452;-6.180;2022-12-08T15:41:59;5.50;99.90
41816;DHT22;27814;53.452;-6.180;2022-12-08T15:44:29;5.40;99.90
41816;DHT22;27814;53.452;-6.180;2022-12-08T15:46:59;5.40;99.90
41816;DHT22;27814;53.452;-6.180;2022-12-08T15:49:29;5.30;99.90
41816;DHT22;27814;53.452;-6.180;2022-12-08T15:51:58;5.30;99.90
41816;DHT22;27814;53.452;-6.180;2022-12-08T15:54:39;5.20;99.90
41816;DHT22;27814;53.452;-6.180;2022-12-08T15:57:17;5.20;99.90
41816;DHT22;27814;53.452;-6.180;2022-12-08T16:00:25;5.20;99.90
41816;DHT22;27814;53.452;-6.180;2022-12-08T16:03:22;5.10;99.90
41816;DHT22;27814;53.452;-6.180;2022-12-08T16:06:16;5.10;99.90
41816;DHT22;27814;53.452;-6.180;2022-12-08T16:09:09;5.00;99.90
41816;DHT22;27814;53.452;-6.180;2022-12-08T16:11:45;5.00;99.90
41816;DHT22;27814;53.452;-6.180;2022-12-08T16:14:37;4.90;99.90
41816;DHT22;27814;53.452;-6.180;2022-12-08T16:17:28;4.90;99.90
41816;DHT22;27814;53.452;-6.180;2022-12-08T16:19:57;4.80;99.90
41816;DHT22;27814;53.452;-6.180;2022-12-08T16:22:28;4.80;99.90
41816;DHT22;27814;53.452;-6.180;2022-12-08T16:25:18;4.80;99.90